Time;durP1;ratioP1;P1;durP2;ratioP2;P2;SDS_P1;SDS_P2;PMS_P1;PMS_P2;Temp;Humidity;BMP_temperature;BMP_pressure;BME280_temperature;BME280_humidity;BME280_pressure;Samples;Min_cycle;Max_cycle;Signal;HPM_P1;HPM_P2
2023/01/16 00:00:33;;;;;;;1.63;0.90;;;;;;;2.94;98.51;97132.88;4205597;28;20082;-74
2023/01/16 00:02:34;;;;;;;2.50;0.90;;;;;;;3.00;98.91;97129.50;4206190;28;20082;-74
2023/01/16 00:04:35;;;;;;;1.45;0.70;;;;;;;3.01;98.75;97116.63;4201456;28;20060;-74
2023/01/16 00:06:35;;;;;;;0.70;0.60;;;;;;;2.97;98.04;97113.00;4206294;28;20051;-74
2023/01/16 00:08:36;;;;;;;0.70;0.70;;;;;;;2.87;99.31;97116.34;4203150;28;20361;-74
2023/01/16 00:10:36;;;;;;;0.98;0.77;;;;;;;2.84;99.81;97106.94;4205827;28;20449;-74
2023/01/16 00:12:37;;;;;;;1.13;0.80;;;;;;;2.94;99.05;97111.00;4204989;28;20068;-74
2023/01/16 00:14:37;;;;;;;0.70;0.70;;;;;;;2.94;98.94;97100.88;4205755;28;20330;-74
2023/01/16 00:16:38;;;;;;;0.82;0.68;;;;;;;2.81;99.36;97092.06;4204737;28;20067;-74
2023/01/16 00:18:38;;;;;;;0.80;0.68;;;;;;;2.78;99.79;97098.22;4204791;28;20040;-74
2023/01/16 00:20:38;;;;;;;2.97;0.80;;;;;;;2.76;99.48;97106.00;4204478;28;20130;-74
2023/01/16 00:22:39;;;;;;;0.70;0.70;;;;;;;2.67;99.49;97091.78;4206327;28;20037;-74
2023/01/16 00:24:39;;;;;;;2.92;1.33;;;;;;;2.57;99.75;97086.91;4210623;28;20700;-74
2023/01/16 00:26:39;;;;;;;5.30;1.98;;;;;;;2.43;100.00;97087.38;4202516;28;20495;-74
2023/01/16 00:28:40;;;;;;;2.63;1.42;;;;;;;2.34;100.00;97094.19;4202617;28;20075;-74
2023/01/16 00:30:40;;;;;;;3.55;1.30;;;;;;;2.32;100.00;97089.09;4217702;28;20287;-74
2023/01/16 00:32:40;;;;;;;3.53;1.52;;;;;;;2.17;100.00;97098.13;4202207;28;20052;-74
2023/01/16 00:34:41;;;;;;;3.13;1.50;;;;;;;2.21;100.00;97098.97;4212583;28;20063;-73
2023/01/16 00:36:41;;;;;;;4.05;1.92;;;;;;;2.25;100.00;97102.59;4214874;28;20139;-73
2023/01/16 00:38:42;;;;;;;19.10;5.57;;;;;;;2.31;100.00;97092.97;4205786;28;20366;-74
2023/01/16 00:40:42;;;;;;;17.60;5.10;;;;;;;2.34;100.00;97081.34;4215645;28;20059;-74
2023/01/16 00:42:42;;;;;;;5.82;2.50;;;;;;;2.48;100.00;97086.28;4204862;28;20044;-73
2023/01/16 00:44:43;;;;;;;4.68;1.55;;;;;;;2.43;100.00;97083.88;4206921;28;20123;-74
2023/01/16 00:46:43;;;;;;;7.25;2.40;;;;;;;2.43;100.00;97089.31;4216127;27;20046;-74
2023/01/16 00:48:43;;;;;;;4.75;2.10;;;;;;;2.43;100.00;97089.31;4212761;28;20523;-73
2023/01/16 00:50:43;;;;;;;2.08;1.15;;;;;;;2.44;100.00;97086.22;4206653;28;20087;-73
2023/01/16 00:52:44;;;;;;;2.53;1.13;;;;;;;2.42;100.00;97088.53;4215968;28;20140;-74
2023/01/16 00:54:44;;;;;;;2.25;0.98;;;;;;;2.43;100.00;97078.41;4212154;28;20105;-74
2023/01/16 00:56:44;;;;;;;1.48;1.08;;;;;;;2.39;100.00;97085.72;4219744;27;20489;-74
2023/01/16 00:58:45;;;;;;;4.43;1.20;;;;;;;2.36;100.00;97089.16;4217543;28;20128;-74
2023/01/16 01:00:45;;;;;;;2.28;1.20;;;;;;;2.37;100.00;97083.34;4217796;28;20074;-74
2023/01/16 01:02:46;;;;;;;1.67;1.08;;;;;;;2.60;100.00;97075.25;4205708;28;20060;-74
2023/01/16 01:04:46;;;;;;;2.53;1.30;;;;;;;2.59;100.00;97084.59;4215153;28;20063;-74
2023/01/16 01:06:47;;;;;;;2.33;1.00;;;;;;;2.57;99.54;97081.44;4211424;28;20381;-74
2023/01/16 01:08:47;;;;;;;2.58;1.10;;;;;;;2.52;99.53;97078.97;4203725;28;20287;-73
2023/01/16 01:10:48;;;;;;;1.00;0.90;;;;;;;2.51;99.68;97080.13;4206127;28;20043;-73
2023/01/16 01:12:48;;;;;;;1.35;0.98;;;;;;;2.42;99.40;97071.38;4210381;28;20347;-74
2023/01/16 01:14:48;;;;;;;1.95;0.98;;;;;;;2.42;100.00;97060.44;4213101;28;20075;-74
2023/01/16 01:16:49;;;;;;;0.90;0.90;;;;;;;2.40;100.00;97062.72;4216120;28;20253;-74
2023/01/16 01:18:50;;;;;;;0.80;0.77;;;;;;;2.38;100.00;97063.09;4206432;28;20039;-73
2023/01/16 01:20:50;;;;;;;0.90;0.90;;;;;;;2.37;100.00;97049.81;4207311;28;20040;-74
2023/01/16 01:22:50;;;;;;;1.08;0.75;;;;;;;2.36;100.00;97040.03;4214292;28;20498;-74
2023/01/16 01:24:51;;;;;;;1.92;0.90;;;;;;;2.36;100.00;97040.03;4219460;28;20046;-74
2023/01/16 01:26:51;;;;;;;1.70;1.00;;;;;;;2.44;100.00;97039.81;4208274;28;20127;-73
2023/01/16 01:28:51;;;;;;;0.70;0.70;;;;;;;2.45;100.00;97029.69;4205937;28;20076;-73
2023/01/16 01:30:52;;;;;;;1.05;0.90;;;;;;;2.54;100.00;97017.41;4210057;28;20067;-73
2023/01/16 01:32:52;;;;;;;1.05;0.90;;;;;;;2.60;99.88;97017.91;4209084;28;20476;-73
2023/01/16 01:34:52;;;;;;;0.93;0.80;;;;;;;2.68;99.75;97016.88;4209675;28;20044;-73
2023/01/16 01:36:53;;;;;;;2.72;0.90;;;;;;;2.64;98.60;97013.28;4215849;28;20475;-74
2023/01/16 01:38:53;;;;;;;1.02;0.90;;;;;;;2.62;98.74;97012.88;4217520;28;20056;-73
2023/01/16 01:40:53;;;;;;;0.95;0.88;;;;;;;2.67;99.22;97004.38;4215967;28;20060;-74
2023/01/16 01:42:54;;;;;;;0.82;0.80;;;;;;;2.64;99.17;97001.56;4205612;28;20361;-73
2023/01/16 01:45:00;;;;;;;2.88;1.13;;;;;;;2.65;98.94;97003.16;4205945;28;20040;-73
2023/01/16 01:47:01;;;;;;;1.55;1.08;;;;;;;2.66;99.58;96997.34;4209623;28;20695;-74
2023/01/16 01:49:10;;;;;;;1.70;0.82;;;;;;;2.67;99.19;96989.94;4213332;28;20089;-74
2023/01/16 01:51:21;;;;;;;1.20;1.10;;;;;;;2.67;98.84;96982.53;4211521;28;20216;-74
2023/01/16 01:53:29;;;;;;;1.75;0.80;;;;;;;2.70;99.23;96967.34;4212997;28;20206;-73
2023/01/16 01:55:29;;;;;;;2.53;0.80;;;;;;;2.76;99.17;96965.91;4216860;28;20360;-74
2023/01/16 01:57:36;;;;;;;1.83;1.05;;;;;;;2.63;97.65;96948.91;4204751;28;20241;-73
2023/01/16 01:59:42;;;;;;;2.15;1.05;;;;;;;2.63;97.90;96956.31;4214802;28;20044;-73
2023/01/16 02:01:43;;;;;;;2.55;1.00;;;;;;;2.61;97.99;96948.47;4205432;28;20036;-74
2023/01/16 02:03:51;;;;;;;1.33;0.90;;;;;;;2.58;97.08;96945.69;4203089;28;20046;-74
2023/01/16 02:05:57;;;;;;;1.58;1.40;;;;;;;2.48;97.06;96934.22;4209426;28;20386;-73
2023/01/16 02:07:58;;;;;;;3.28;1.52;;;;;;;2.39;97.57;96921.94;4216706;28;20171;-74
2023/01/16 02:10:12;;;;;;;2.22;1.42;;;;;;;2.32;98.18;96917.16;4207435;28;20094;-73
2023/01/16 02:12:16;;;;;;;2.53;1.10;;;;;;;2.20;98.48;96920.03;4204196;28;20126;-73
2023/01/16 02:14:17;;;;;;;3.92;1.50;;;;;;;2.14;98.73;96910.56;4209896;28;20123;-73
2023/01/16 02:21:01;;;;;;;2.20;1.20;;;;;;;2.27;98.61;96903.81;4207872;28;20051;-73
2023/01/16 02:23:24;;;;;;;1.83;1.25;;;;;;;2.18;97.97;96895.84;4205978;28;20044;-74
2023/01/16 02:25:43;;;;;;;1.20;1.10;;;;;;;2.35;98.74;96894.59;4203805;28;20047;-74
2023/01/16 02:28:09;;;;;;;1.77;1.10;;;;;;;2.22;98.35;96891.22;4213454;27;20535;-73
2023/01/16 02:30:34;;;;;;;1.65;0.90;;;;;;;2.20;98.61;96879.09;4217946;28;20912;-73
2023/01/16 02:32:54;;;;;;;1.42;1.00;;;;;;;2.27;98.73;96881.19;4207405;28;20047;-73
2023/01/16 02:35:21;;;;;;;0.80;0.80;;;;;;;2.24;98.91;96866.34;4213501;28;20051;-73
2023/01/16 02:37:41;;;;;;;2.13;0.82;;;;;;;2.21;98.46;96864.31;4206879;28;20115;-74
2023/01/16 02:40:08;;;;;;;1.08;0.95;;;;;;;2.18;99.25;96854.13;4203286;28;20135;-73
2023/01/16 02:42:32;;;;;;;4.07;0.95;;;;;;;2.19;99.36;96850.25;4190222;28;20048;-73
2023/01/16 02:45:05;;;;;;;1.20;0.80;;;;;;;2.29;100.00;96857.81;4217855;28;20146;-73
2023/01/16 02:47:17;;;;;;;0.80;0.80;;;;;;;2.25;99.50;96846.06;4204349;28;20043;-73
2023/01/16 02:49:29;;;;;;;2.58;0.85;;;;;;;2.23;99.32;96853.81;4207859;28;20101;-74
2023/01/16 02:51:37;;;;;;;2.38;1.00;;;;;;;2.11;99.35;96857.50;4211238;28;20127;-73
2023/01/16 02:53:52;;;;;;;1.90;0.90;;;;;;;2.00;100.00;96861.19;4207088;28;20040;-73
2023/01/16 02:56:08;;;;;;;1.25;0.93;;;;;;;2.04;100.00;96842.94;4213684;28;20479;-73
2023/01/16 02:58:11;;;;;;;4.55;1.10;;;;;;;2.11;100.00;96843.88;4203267;28;20047;-73
2023/01/16 03:00:12;;;;;;;;;;;;;;;2.11;100.00;96832.16;4202990;28;20028;-73
2023/01/16 03:02:13;;;;;;;2.05;1.00;;;;;;;2.04;100.00;96819.19;4204635;28;19920;-73
2023/01/16 03:04:38;;;;;;;1.60;0.93;;;;;;;2.08;100.00;96830.97;4216558;28;20144;-73
2023/01/16 03:06:44;;;;;;;1.17;0.90;;;;;;;2.04;100.00;96818.41;4208919;28;20097;-73
2023/01/16 03:08:47;;;;;;;1.85;1.00;;;;;;;2.17;100.00;96825.28;4217389;28;20378;-74
2023/01/16 03:11:25;;;;;;;3.08;1.30;;;;;;;2.24;99.96;96815.28;4203751;28;20566;-74
2023/01/16 03:13:38;;;;;;;2.35;1.20;;;;;;;2.26;98.91;96812.16;4206013;28;20140;-73
2023/01/16 03:15:54;;;;;;;2.08;1.20;;;;;;;2.27;98.54;96807.50;4205888;28;20048;-74
2023/01/16 03:18:27;;;;;;;3.25;1.27;;;;;;;2.30;99.14;96802.09;4207864;28;20047;-73
2023/01/16 03:20:59;;;;;;;2.97;1.33;;;;;;;2.35;98.76;96804.53;4202736;28;20044;-74
2023/01/16 03:23:09;;;;;;;4.28;1.23;;;;;;;2.29;98.37;96792.34;4204963;28;20277;-75
2023/01/16 03:25:18;;;;;;;3.03;1.33;;;;;;;2.29;98.10;96792.34;4209188;28;20048;-75
2023/01/16 03:27:28;;;;;;;2.63;1.17;;;;;;;2.24;97.58;96796.16;4203160;28;20036;-74
2023/01/16 03:29:36;;;;;;;1.85;1.27;;;;;;;2.28;97.28;96788.03;4204226;28;20055;-74
2023/01/16 03:31:45;;;;;;;4.43;1.40;;;;;;;2.20;98.35;96787.13;4219203;28;20085;-74
2023/01/16 03:34:02;;;;;;;2.30;1.42;;;;;;;2.19;97.94;96782.81;4216079;28;20267;-74
2023/01/16 03:36:13;;;;;;;4.90;1.35;;;;;;;2.12;97.42;96777.22;4215608;28;20491;-74
2023/01/16 03:38:15;;;;;;;2.20;1.30;;;;;;;2.13;99.08;96772.56;4212908;28;20105;-74
2023/01/16 03:40:26;;;;;;;4.43;1.60;;;;;;;2.21;97.91;96761.41;4217500;28;20031;-74
2023/01/16 03:42:46;;;;;;;1.70;1.20;;;;;;;2.24;98.75;96754.44;4214300;28;20044;-74
2023/01/16 03:44:52;;;;;;;2.55;1.30;;;;;;;2.33;97.92;96743.28;4212998;28;20051;-74
2023/01/16 03:46:54;;;;;;;2.35;1.30;;;;;;;2.36;97.60;96743.31;4217753;28;20099;-74
2023/01/16 03:49:15;;;;;;;1.45;1.23;;;;;;;2.31;96.96;96737.38;4211149;28;20044;-75
2023/01/16 03:51:22;;;;;;;2.85;1.45;;;;;;;2.33;96.57;96729.63;4189031;28;20135;-74
2023/01/16 03:53:28;;;;;;;5.88;1.83;;;;;;;2.23;97.03;96726.38;4206545;28;20052;-74
2023/01/16 03:55:36;;;;;;;3.00;1.33;;;;;;;2.32;97.61;96733.50;4207073;28;20041;-75
2023/01/16 03:57:44;;;;;;;3.22;1.20;;;;;;;2.27;97.53;96723.69;4206915;28;20050;-74
2023/01/16 03:59:46;;;;;;;3.70;1.45;;;;;;;2.31;97.81;96723.72;4206108;28;20043;-74
2023/01/16 04:02:25;;;;;;;3.55;1.25;;;;;;;2.34;97.86;96723.03;4202515;28;20051;-74
2023/01/16 04:04:47;;;;;;;4.07;2.08;;;;;;;2.24;96.85;96713.53;4205363;28;20036;-74
2023/01/16 04:07:03;;;;;;;4.57;1.13;;;;;;;2.21;96.57;96717.75;4203042;28;20048;-74
2023/01/16 04:09:12;;;;;;;1.23;1.13;;;;;;;2.20;98.10;96720.84;4202418;28;20043;-74
2023/01/16 04:11:17;;;;;;;1.90;1.10;;;;;;;2.14;97.40;96714.91;4215715;28;20047;-74
2023/01/16 04:13:29;;;;;;;2.30;1.40;;;;;;;2.07;98.33;96716.72;4214011;28;20444;-74
2023/01/16 04:15:31;;;;;;;;;;;;;;;2.09;98.03;96717.94;4210549;28;20044;-75
2023/01/16 04:17:33;;;;;;;3.63;1.50;;;;;;;2.10;98.10;96713.28;4204463;28;19920;-74
2023/01/16 04:19:34;;;;;;;2.95;1.08;;;;;;;2.17;96.98;96721.59;4205477;28;20473;-74
2023/01/16 04:21:34;;;;;;;3.00;1.30;;;;;;;2.20;97.80;96718.13;4211603;27;20638;-75
2023/01/16 04:23:35;;;;;;;1.27;1.00;;;;;;;2.24;98.33;96705.34;4212307;28;20078;-74
2023/01/16 04:25:36;;;;;;;3.97;1.40;;;;;;;2.28;97.24;96700.69;4204748;28;20438;-74
2023/01/16 04:27:36;;;;;;;5.65;1.45;;;;;;;2.23;96.88;96693.63;4203600;28;20159;-74
2023/01/16 04:29:36;;;;;;;2.53;1.42;;;;;;;2.21;97.27;96681.50;4206764;28;20075;-74
2023/01/16 04:31:37;;;;;;;2.05;1.73;;;;;;;2.15;96.64;96677.50;4210302;28;20068;-75
2023/01/16 04:33:37;;;;;;;3.47;1.60;;;;;;;2.23;98.29;96679.16;4207610;28;20324;-74
2023/01/16 04:35:37;;;;;;;3.55;1.30;;;;;;;2.20;97.76;96677.97;4211850;28;20037;-74
2023/01/16 04:37:38;;;;;;;3.05;1.77;;;;;;;2.19;97.46;96681.06;4213648;28;20032;-74
2023/01/16 04:39:40;;;;;;;2.38;1.45;;;;;;;2.12;97.89;96665.38;4208730;28;20056;-74
2023/01/16 04:41:40;;;;;;;4.00;1.20;;;;;;;2.11;98.10;96665.75;4211976;28;20491;-74
2023/01/16 04:43:41;;;;;;;2.65;1.30;;;;;;;2.05;98.65;96659.81;4203060;28;20075;-74
2023/01/16 04:45:41;;;;;;;3.05;1.30;;;;;;;2.11;98.15;96658.34;4203364;28;20055;-74
2023/01/16 04:47:46;;;;;;;2.40;1.25;;;;;;;2.10;97.15;96645.88;4210869;28;20048;-74
2023/01/16 04:49:47;;;;;;;3.95;1.15;;;;;;;2.07;97.62;96641.16;4205070;28;20059;-74
2023/01/16 04:51:47;;;;;;;4.50;1.58;;;;;;;2.06;97.89;96631.38;4203548;28;20395;-74
2023/01/16 04:53:47;;;;;;;2.80;1.20;;;;;;;2.11;97.87;96624.81;4210097;28;20040;-74
2023/01/16 04:55:47;;;;;;;1.98;1.20;;;;;;;2.01;97.52;96620.78;4214728;28;20050;-74
2023/01/16 04:57:48;;;;;;;2.33;1.48;;;;;;;2.01;99.13;96625.47;4218631;28;20123;-74
2023/01/16 04:59:48;;;;;;;1.33;1.10;;;;;;;2.01;98.57;96622.72;4204619;28;20122;-74
2023/01/16 05:01:49;;;;;;;4.10;1.20;;;;;;;2.01;99.47;96625.47;4204590;28;20051;-74
2023/01/16 05:03:49;;;;;;;2.28;1.50;;;;;;;2.10;99.40;96615.84;4207142;28;20043;-75
2023/01/16 05:05:50;;;;;;;4.68;1.52;;;;;;;2.10;99.07;96613.13;4205029;28;20464;-74
2023/01/16 05:08:15;;;;;;;3.30;1.33;;;;;;;2.06;97.47;96603.31;4211565;28;20040;-74
2023/01/16 05:10:11;;;;;;;1.75;1.30;;;;;;;2.09;97.68;96608.84;4211670;28;20077;-74
2023/01/16 05:12:11;;;;;;;2.33;1.15;;;;;;;2.07;97.26;96600.25;4214669;28;20085;-74
2023/01/16 05:14:11;;;;;;;1.75;1.30;;;;;;;2.11;98.38;96601.06;4212806;28;20036;-75
2023/01/16 05:16:12;;;;;;;4.43;1.30;;;;;;;2.05;96.05;96588.88;4211637;28;20019;-74
2023/01/16 05:18:12;;;;;;;3.58;1.30;;;;;;;1.93;96.75;96595.34;4215244;28;20058;-74
2023/01/16 05:20:13;;;;;;;8.10;1.63;;;;;;;1.89;98.73;96599.16;4207275;28;20271;-74
2023/01/16 05:22:13;;;;;;;1.90;1.35;;;;;;;1.82;97.86;96601.78;4204331;28;20084;-74
2023/01/16 05:24:13;;;;;;;2.28;1.10;;;;;;;1.89;98.63;96590.97;4203991;28;20433;-74
2023/01/16 05:26:14;;;;;;;5.75;1.13;;;;;;;1.93;97.91;96594.56;4209083;28;20329;-74
2023/01/16 05:28:14;;;;;;;2.53;1.30;;;;;;;1.92;98.95;96593.00;4214502;28;20396;-74
2023/01/16 05:30:15;;;;;;;3.08;1.23;;;;;;;1.95;98.50;96586.78;4204073;28;20042;-74
2023/01/16 05:32:15;;;;;;;2.10;1.20;;;;;;;2.01;98.84;96588.06;4219518;28;20040;-74
2023/01/16 05:34:15;;;;;;;6.22;1.40;;;;;;;1.94;98.03;96582.50;4210218;27;20035;-75
2023/01/16 05:36:16;;;;;;;2.80;1.10;;;;;;;1.95;98.47;96576.66;4206323;28;20036;-74
2023/01/16 05:38:16;;;;;;;1.20;1.00;;;;;;;1.86;97.81;96584.34;4206658;28;20117;-74
2023/01/16 05:40:17;;;;;;;3.22;1.27;;;;;;;1.93;99.04;96567.28;4208523;28;20043;-74
2023/01/16 05:42:24;;;;;;;3.40;1.40;;;;;;;2.03;99.38;96574.84;4208964;28;20042;-74
2023/01/16 05:44:24;;;;;;;4.90;2.08;;;;;;;2.00;98.62;96572.84;4203105;28;20051;-74
2023/01/16 05:46:25;;;;;;;6.90;2.50;;;;;;;1.99;98.71;96565.81;4209602;28;20067;-74
2023/01/16 05:48:25;;;;;;;6.53;2.30;;;;;;;2.07;98.62;96566.69;4205506;28;20051;-74
2023/01/16 05:50:25;;;;;;;2.03;1.50;;;;;;;2.01;98.76;96563.50;4211532;28;20099;-74
2023/01/16 05:52:26;;;;;;;4.30;1.70;;;;;;;1.99;98.53;96565.81;4213231;28;20294;-74
2023/01/16 05:54:27;;;;;;;5.60;2.22;;;;;;;1.94;98.97;96558.72;4207556;28;20138;-74
2023/01/16 05:56:27;;;;;;;3.53;1.30;;;;;;;1.89;98.97;96556.31;4135852;28;20136;-74
2023/01/16 05:58:27;;;;;;;3.83;1.88;;;;;;;1.92;100.00;96554.81;4195881;28;20125;-74
2023/01/16 06:00:28;;;;;;;1.35;0.90;;;;;;;1.90;99.92;96563.38;4207387;28;20333;-74
2023/01/16 06:02:28;;;;;;;2.28;1.20;;;;;;;1.90;100.00;96554.38;4203055;28;20162;-74
2023/01/16 06:04:28;;;;;;;1.67;1.20;;;;;;;1.85;99.26;96544.59;4217223;28;20539;-74
2023/01/16 06:06:29;;;;;;;5.53;1.48;;;;;;;1.88;100.00;96545.78;4204400;28;20132;-74
2023/01/16 06:08:31;;;;;;;4.10;1.25;;;;;;;1.90;99.96;96543.47;4208772;27;20047;-74
2023/01/16 06:10:32;;;;;;;;;;;;;;;1.95;99.50;96532.25;4219306;28;20666;-75
2023/01/16 06:12:33;;;;;;;2.22;1.00;;;;;;;2.00;99.29;96536.59;4219196;28;19911;-74
2023/01/16 06:14:34;;;;;;;2.40;1.05;;;;;;;1.98;98.63;96526.03;4209518;28;20075;-74
2023/01/16 06:16:35;;;;;;;2.15;1.10;;;;;;;1.91;98.84;96531.44;4206581;28;20184;-74
2023/01/16 06:18:35;;;;;;;5.63;1.33;;;;;;;1.96;99.59;96523.69;4204327;28;20146;-74
2023/01/16 06:20:35;;;;;;;2.63;1.33;;;;;;;1.98;99.59;96510.47;4212457;28;20051;-74
2023/01/16 06:22:36;;;;;;;1.98;1.10;;;;;;;2.02;99.36;96507.81;4217554;28;20380;-75
2023/01/16 06:24:36;;;;;;;2.00;1.13;;;;;;;2.02;98.37;96502.34;4219161;28;20050;-74
2023/01/16 06:26:36;;;;;;;1.70;0.80;;;;;;;2.01;98.11;96500.00;4220333;28;20151;-74
2023/01/16 06:28:37;;;;;;;3.15;1.00;;;;;;;2.00;98.44;96506.59;4207602;28;21275;-74
2023/01/16 06:30:38;;;;;;;3.03;1.20;;;;;;;1.89;98.31;96492.81;4210334;28;20120;-74
2023/01/16 06:32:38;;;;;;;2.78;1.10;;;;;;;1.93;99.31;96497.16;4203090;28;20302;-74
2023/01/16 06:34:38;;;;;;;1.65;0.95;;;;;;;2.00;99.52;96496.47;4208761;28;20578;-74
2023/01/16 06:36:41;;;;;;;1.40;1.25;;;;;;;2.03;99.37;96495.72;4204207;28;20105;-74
2023/01/16 06:38:41;;;;;;;2.78;0.98;;;;;;;1.95;99.09;96483.16;4214437;27;20043;-74
2023/01/16 06:40:44;;;;;;;2.58;1.10;;;;;;;1.92;99.22;96479.22;4211310;28;20395;-74
2023/01/16 06:42:44;;;;;;;3.97;1.27;;;;;;;1.88;98.91;96475.66;4201863;28;20180;-74
2023/01/16 06:44:44;;;;;;;1.30;1.00;;;;;;;1.81;99.30;96478.28;4202434;28;20046;-74
2023/01/16 06:46:45;;;;;;;2.60;1.20;;;;;;;1.80;99.69;96473.22;4202893;28;20080;-74
2023/01/16 06:48:45;;;;;;;5.00;1.13;;;;;;;1.75;99.89;96468.09;4202422;28;20464;-74
2023/01/16 06:50:45;;;;;;;1.58;1.48;;;;;;;1.67;99.93;96459.03;4202419;28;20040;-75
2023/01/16 06:52:47;;;;;;;1.25;0.90;;;;;;;1.56;99.67;96458.88;4202051;28;20442;-74
2023/01/16 06:54:47;;;;;;;1.65;1.10;;;;;;;1.46;100.00;96456.78;4213317;28;20038;-74
2023/01/16 06:56:48;;;;;;;2.90;1.10;;;;;;;1.54;100.00;96455.72;4218062;28;20523;-74
2023/01/16 06:58:48;;;;;;;3.00;1.70;;;;;;;1.60;100.00;96437.91;4206158;28;20052;-74
2023/01/16 07:00:52;;;;;;;2.95;1.20;;;;;;;1.82;100.00;96439.00;4214570;28;20055;-74
2023/01/16 07:02:55;;;;;;;1.30;1.10;;;;;;;1.91;100.00;96433.25;4208760;28;20369;-75
2023/01/16 07:04:55;;;;;;;;;;;;;;;2.04;99.84;96425.59;4210630;28;20047;-74
2023/01/16 07:06:55;;;;;;;3.47;1.25;;;;;;;1.96;98.06;96430.97;4214471;28;19934;-74
2023/01/16 07:08:56;;;;;;;2.22;1.05;;;;;;;1.91;98.12;96420.41;4203623;28;20615;-74
2023/01/16 07:11:00;;;;;;;5.18;1.00;;;;;;;1.91;99.19;96425.84;4203180;28;20110;-75
2023/01/16 07:13:00;;;;;;;2.40;1.48;;;;;;;1.83;98.68;96415.22;4210656;28;20043;-74
2023/01/16 07:24:24;;;;;;;3.60;2.00;;;;;;;1.62;100.00;96394.72;4218170;28;20135;-74
2023/01/16 07:26:26;;;;;;;8.27;2.90;;;;;;;1.56;99.64;96401.63;4216383;28;20143;-74
2023/01/16 07:28:27;;;;;;;5.68;2.72;;;;;;;1.49;100.00;96378.94;4202672;28;20043;-74
2023/01/16 07:30:28;;;;;;;7.68;2.60;;;;;;;1.47;100.00;96379.31;4203221;28;20067;-74
2023/01/16 07:32:28;;;;;;;10.13;5.05;;;;;;;1.43;100.00;96381.22;4210377;28;20054;-74
2023/01/16 07:34:29;;;;;;;12.60;6.70;;;;;;;1.42;100.00;96373.44;4204263;28;20032;-74
2023/01/16 07:36:29;;;;;;;20.83;8.25;;;;;;;1.41;100.00;96375.38;4203023;28;20042;-74
2023/01/16 07:38:29;;;;;;;17.15;7.38;;;;;;;1.47;100.00;96378.53;4203130;28;20039;-74
2023/01/16 07:40:30;;;;;;;20.90;9.57;;;;;;;1.66;100.00;96373.75;4203123;28;20040;-74
2023/01/16 07:42:30;;;;;;;12.48;6.60;;;;;;;1.63;99.76;96369.00;4210715;28;20435;-74
2023/01/16 07:44:31;;;;;;;11.35;6.10;;;;;;;1.65;99.94;96363.97;4218189;28;20289;-75
2023/01/16 07:46:32;;;;;;;7.28;4.05;;;;;;;1.69;99.31;96367.53;4214655;28;20276;-74
2023/01/16 07:48:32;;;;;;;6.05;2.00;;;;;;;1.55;97.76;96356.44;4201760;28;20048;-74
2023/01/16 07:50:32;;;;;;;5.78;2.92;;;;;;;1.45;98.81;96354.38;4203206;28;20369;-74
2023/01/16 07:52:33;;;;;;;1.95;1.25;;;;;;;1.33;98.39;96341.78;4202594;28;20047;-74
2023/01/16 07:54:35;;;;;;;5.32;1.80;;;;;;;1.21;98.88;96352.91;4217671;28;20115;-75
2023/01/16 07:56:36;;;;;;;;;;;;;;;1.17;99.73;96345.84;4216044;28;20036;-74
2023/01/16 07:58:37;;;;;;;3.20;1.70;;;;;;;1.10;100.00;96341.88;4217304;28;20395;-74
2023/01/16 08:00:37;;;;;;;3.50;1.98;;;;;;;1.12;100.00;96330.59;4210128;28;20056;-74
2023/01/16 08:02:39;;;;;;;4.10;1.70;;;;;;;1.13;100.00;96324.78;4218101;28;20407;-74
2023/01/16 08:04:39;;;;;;;2.72;1.75;;;;;;;1.17;100.00;96321.34;4217487;28;20375;-74
2023/01/16 08:06:44;;;;;;;3.45;1.60;;;;;;;1.23;100.00;96314.38;4207083;28;20073;-74
2023/01/16 08:08:44;;;;;;;2.63;1.83;;;;;;;1.32;100.00;96312.16;4202574;28;20139;-75
2023/01/16 08:10:45;;;;;;;2.80;1.80;;;;;;;1.43;100.00;96304.16;4202242;28;20121;-74
2023/01/16 08:12:45;;;;;;;1.85;1.33;;;;;;;1.42;99.97;96314.25;4215130;28;20047;-75
2023/01/16 08:14:45;;;;;;;6.35;2.10;;;;;;;1.39;99.68;96299.41;4217237;28;20054;-74
2023/01/16 08:16:46;;;;;;;5.97;2.42;;;;;;;1.34;98.82;96302.50;4202431;28;20036;-74
2023/01/16 08:18:48;;;;;;;3.45;1.50;;;;;;;1.38;99.44;96303.31;4202287;28;20490;-74
2023/01/16 08:20:48;;;;;;;2.67;1.70;;;;;;;1.43;99.35;96294.03;4207283;28;20074;-74
2023/01/16 08:22:50;;;;;;;3.08;1.77;;;;;;;1.53;99.39;96298.81;4215862;28;20068;-74
2023/01/16 08:24:50;;;;;;;3.83;1.70;;;;;;;1.62;99.29;96307.47;4218306;28;20551;-74
2023/01/16 08:26:51;;;;;;;6.03;1.65;;;;;;;1.75;99.55;96296.34;4205300;28;20064;-74
2023/01/16 08:28:52;;;;;;;3.20;1.70;;;;;;;1.84;99.33;96300.34;4202465;28;20464;-74
2023/01/16 08:30:52;;;;;;;3.40;1.42;;;;;;;1.94;98.37;96298.88;4214702;28;20058;-75
2023/01/16 08:33:01;;;;;;;4.75;2.30;;;;;;;1.91;98.11;96297.69;4216985;28;20426;-74
2023/01/16 08:35:03;;;;;;;16.70;2.20;;;;;;;2.02;98.29;96297.00;4211025;28;20043;-74
2023/01/16 08:37:04;;;;;;;;;;;;;;;2.07;98.40;96289.25;4202871;28;20301;-74
2023/01/16 08:39:04;;;;;;;1.90;1.50;;;;;;;2.23;98.63;96289.00;4204660;28;19958;-74
2023/01/16 08:51:21;;;;;;;7.15;3.28;;;;;;;2.27;97.99;96280.84;4203068;28;20506;-74
2023/01/16 08:52:42;;;;;;;7.50;2.65;;;;;;;2.68;97.18;96276.09;4201592;28;20039;-74
2023/01/16 08:54:43;;;;;;;5.13;1.83;;;;;;;2.74;96.48;96280.03;4201972;28;20440;-75
2023/01/16 08:56:43;;;;;;;5.10;2.15;;;;;;;2.82;96.00;96268.00;4203719;28;20090;-74
2023/01/16 08:58:43;;;;;;;3.20;1.95;;;;;;;2.84;95.41;96260.22;4205038;28;20117;-74
2023/01/16 09:00:44;;;;;;;5.40;2.40;;;;;;;2.89;95.53;96259.06;4205584;28;20044;-75
2023/01/16 09:02:45;;;;;;;11.60;3.00;;;;;;;3.00;93.73;96259.91;4206026;28;20044;-74
2023/01/16 09:04:47;;;;;;;4.90;2.40;;;;;;;3.01;94.28;96253.28;4221053;28;20031;-75
2023/01/16 09:06:48;;;;;;;4.20;2.58;;;;;;;3.01;93.49;96242.34;4219787;28;20493;-75
2023/01/16 09:08:48;;;;;;;4.15;2.65;;;;;;;3.03;93.50;96234.56;4215637;28;20043;-75
2023/01/16 09:15:27;;;;;;;7.88;3.97;;;;;;;3.00;92.83;96213.47;4210760;28;20051;-75
2023/01/16 09:17:28;;;;;;;9.18;4.78;;;;;;;2.94;94.17;96221.25;4216768;28;20040;-75
2023/01/16 09:19:28;;;;;;;5.70;3.20;;;;;;;2.88;93.76;96211.06;4204846;28;20040;-74
2023/01/16 09:21:28;;;;;;;4.07;2.25;;;;;;;2.87;93.84;96210.28;4205053;28;20047;-74
2023/01/16 09:23:29;;;;;;;4.10;1.40;;;;;;;2.86;93.65;96216.91;4204283;28;20044;-74
2023/01/16 09:25:30;;;;;;;3.95;2.00;;;;;;;2.92;94.22;96200.94;4204530;28;20047;-74
2023/01/16 09:27:30;;;;;;;3.13;2.00;;;;;;;2.97;93.88;96198.59;4204657;28;20097;-75
2023/01/16 09:29:31;;;;;;;6.13;2.13;;;;;;;2.95;93.88;96197.44;4215278;28;20047;-75
2023/01/16 09:31:31;;;;;;;6.10;2.35;;;;;;;3.01;92.89;96195.91;4219832;28;20508;-74
2023/01/16 09:33:31;;;;;;;6.10;2.97;;;;;;;2.97;93.05;96200.56;4208243;28;20314;-75
2023/01/16 09:35:32;;;;;;;5.82;2.63;;;;;;;3.08;92.02;96191.25;4205090;28;20436;-74
2023/01/16 09:37:32;;;;;;;4.75;2.00;;;;;;;3.04;91.61;96195.13;4206337;28;20108;-75
2023/01/16 09:39:33;;;;;;;4.93;2.25;;;;;;;3.03;90.80;96194.34;4219727;27;20116;-74
2023/01/16 09:44:13;;;;;;;4.32;2.70;;;;;;;3.16;92.12;96183.09;4204912;28;20047;-74
2023/01/16 09:46:16;;;;;;;2.45;1.45;;;;;;;3.23;90.62;96178.44;4204910;28;20670;-75
2023/01/16 09:48:28;;;;;;;2.67;1.58;;;;;;;3.26;89.34;96174.16;4211418;28;20035;-74
2023/01/16 09:50:38;;;;;;;4.15;1.70;;;;;;;3.19;89.25;96168.66;4220207;28;20391;-74
2023/01/16 10:00:29;;;;;;;2.17;1.40;;;;;;;3.19;90.64;96141.31;4204414;28;20070;-74
2023/01/16 10:02:33;;;;;;;2.85;1.30;;;;;;;3.20;89.56;96140.16;4205351;28;20484;-74
2023/01/16 10:04:36;;;;;;;4.20;1.33;;;;;;;3.19;90.23;96138.59;4220053;28;20480;-74
2023/01/16 10:06:45;;;;;;;2.22;1.35;;;;;;;3.16;88.51;96114.78;4219265;28;20036;-74
2023/01/16 10:08:54;;;;;;;2.80;1.20;;;;;;;3.21;90.45;96104.25;4218055;28;20118;-74
2023/01/16 10:11:02;;;;;;;3.40;1.48;;;;;;;3.25;88.94;96090.59;4203396;28;20096;-74
2023/01/16 10:13:21;;;;;;;2.42;1.50;;;;;;;3.24;88.88;96097.22;4209609;28;20043;-75
2023/01/16 10:15:40;;;;;;;3.83;1.52;;;;;;;3.17;89.19;96084.34;4208307;28;20048;-74
2023/01/16 10:17:40;;;;;;;3.38;1.98;;;;;;;3.25;90.33;96076.94;4213062;27;20478;-74
2023/01/16 10:20:13;;;;;;;6.63;3.13;;;;;;;3.20;89.38;96061.69;4218985;28;20043;-74
2023/01/16 10:22:44;;;;;;;2.60;2.22;;;;;;;3.40;89.03;96055.88;4211241;28;20063;-74
2023/01/16 10:24:52;;;;;;;1.73;1.40;;;;;;;3.41;88.04;96049.22;4204006;28;20036;-74
2023/01/16 10:27:04;;;;;;;2.03;1.40;;;;;;;3.46;88.99;96029.69;4204054;28;20190;-74
2023/01/16 10:29:28;;;;;;;3.50;1.77;;;;;;;3.52;87.66;96022.66;4212419;28;20036;-74